sensor_id;sensor_type;location;lat;lon;timestamp;temperature;humidity
15217;DHT22;7711;46.634;14.318;2023-02-21T00:02:17;-0.40;1.00
15217;DHT22;7711;46.634;14.318;2023-02-21T00:05:04;-0.30;1.00
15217;DHT22;7711;46.634;14.318;2023-02-21T00:07:49;-0.10;1.00
15217;DHT22;7711;46.634;14.318;2023-02-21T00:10:34;-0.10;1.00
15217;DHT22;7711;46.634;14.318;2023-02-21T00:13:19;-0.10;1.00
15217;DHT22;7711;46.634;14.318;2023-02-21T00:16:03;-0.20;1.00
15217;DHT22;7711;46.634;14.318;2023-02-21T00:18:47;-0.10;1.00
15217;DHT22;7711;46.634;14.318;2023-02-21T00:21:33;-0.10;1.00
15217;DHT22;7711;46.634;14.318;2023-02-21T00:24:18;-0.20;1.00
15217;DHT22;7711;46.634;14.318;2023-02-21T00:27:03;-0.40;1.00
15217;DHT22;7711;46.634;14.318;2023-02-21T00:29:48;-0.50;1.00
15217;DHT22;7711;46.634;14.318;2023-02-21T00:32:33;-0.50;1.00
15217;DHT22;7711;46.634;14.318;2023-02-21T00:35:17;-0.60;1.00
15217;DHT22;7711;46.634;14.318;2023-02-21T00:38:03;-0.50;1.00
15217;DHT22;7711;46.634;14.318;2023-02-21T00:40:49;-0.40;1.00
15217;DHT22;7711;46.634;14.318;2023-02-21T00:43:34;-0.30;1.00
15217;DHT22;7711;46.634;14.318;2023-02-21T00:46:19;-0.50;1.00
15217;DHT22;7711;46.634;14.318;2023-02-21T00:49:04;-0.40;1.00
15217;DHT22;7711;46.634;14.318;2023-02-21T00:51:48;-0.50;1.00
15217;DHT22;7711;46.634;14.318;2023-02-21T00:54:35;-0.50;1.00
15217;DHT22;7711;46.634;14.318;2023-02-21T00:57:19;-0.60;1.00
15217;DHT22;7711;46.634;14.318;2023-02-21T01:00:05;-0.70;1.00
15217;DHT22;7711;46.634;14.318;2023-02-21T01:02:50;-0.70;1.00
15217;DHT22;7711;46.634;14.318;2023-02-21T01:05:34;-0.80;1.00
15217;DHT22;7711;46.634;14.318;2023-02-21T01:08:19;-0.90;1.00
15217;DHT22;7711;46.634;14.318;2023-02-21T01:11:05;-0.80;1.00
15217;DHT22;7711;46.634;14.318;2023-02-21T01:13:49;-0.90;1.00
15217;DHT22;7711;46.634;14.318;2023-02-21T01:16:34;-0.60;1.00
15217;DHT22;7711;46.634;14.318;2023-02-21T01:19:18;-0.60;1.00
15217;DHT22;7711;46.634;14.318;2023-02-21T01:22:03;-0.50;1.00
15217;DHT22;7711;46.634;14.318;2023-02-21T01:24:48;-0.70;1.00
15217;DHT22;7711;46.634;14.318;2023-02-21T01:27:34;-0.80;1.00
15217;DHT22;7711;46.634;14.318;2023-02-21T01:30:19;-0.90;1.00
15217;DHT22;7711;46.634;14.318;2023-02-21T01:33:04;-0.90;1.00
15217;DHT22;7711;46.634;14.318;2023-02-21T01:35:48;-0.90;1.00
15217;DHT22;7711;46.634;14.318;2023-02-21T01:38:33;-1.00;1.00
15217;DHT22;7711;46.634;14.318;2023-02-21T01:41:17;-1.10;1.00
15217;DHT22;7711;46.634;14.318;2023-02-21T01:44:05;-1.00;1.00
15217;DHT22;7711;46.634;14.318;2023-02-21T01:46:50;-1.10;1.00
15217;DHT22;7711;46.634;14.318;2023-02-21T01:49:37;-1.10;1.00
15217;DHT22;7711;46.634;14.318;2023-02-21T01:52:22;-1.20;1.00
15217;DHT22;7711;46.634;14.318;2023-02-21T01:55:07;-1.20;1.00
15217;DHT22;7711;46.634;14.318;2023-02-21T01:57:54;-1.20;1.00
15217;DHT22;7711;46.634;14.318;2023-02-21T02:00:40;-1.10;1.00
15217;DHT22;7711;46.634;14.318;2023-02-21T02:03:25;-1.20;1.00
15217;DHT22;7711;46.634;14.318;2023-02-21T02:06:13;-1.10;1.00
15217;DHT22;7711;46.634;14.318;2023-02-21T02:08:58;-1.00;1.00
15217;DHT22;7711;46.634;14.318;2023-02-21T02:11:54;-1.00;1.00
15217;DHT22;7711;46.634;14.318;2023-02-21T02:15:14;-1.10;1.00
15217;DHT22;7711;46.634;14.318;2023-02-21T02:24:06;-1.30;1.00
15217;DHT22;7711;46.634;14.318;2023-02-21T02:35:43;-1.20;1.00
15217;DHT22;7711;46.634;14.318;2023-02-21T02:38:17;-1.30;1.00
15217;DHT22;7711;46.634;14.318;2023-02-21T02:40:54;-1.30;1.00
15217;DHT22;7711;46.634;14.318;2023-02-21T02:43:27;-1.20;1.00
15217;DHT22;7711;46.634;14.318;2023-02-21T02:45:58;-1.20;1.00
15217;DHT22;7711;46.634;14.318;2023-02-21T02:48:32;-1.20;1.00
15217;DHT22;7711;46.634;14.318;2023-02-21T02:51:04;-1.20;1.00
15217;DHT22;7711;46.634;14.318;2023-02-21T02:53:31;-1.20;1.00
15217;DHT22;7711;46.634;14.318;2023-02-21T02:56:02;-1.20;1.00
15217;DHT22;7711;46.634;14.318;2023-02-21T02:58:31;-1.10;1.00
15217;DHT22;7711;46.634;14.318;2023-02-21T03:01:07;-1.10;1.00
15217;DHT22;7711;46.634;14.318;2023-02-21T03:04:04;-1.20;1.00
15217;DHT22;7711;46.634;14.318;2023-02-21T03:06:40;-1.20;1.00
15217;DHT22;7711;46.634;14.318;2023-02-21T03:15:32;-1.20;1.00
15217;DHT22;7711;46.634;14.318;2023-02-21T03:18:08;-1.30;1.00
15217;DHT22;7711;46.634;14.318;2023-02-21T03:20:37;-1.30;1.00
15217;DHT22;7711;46.634;14.318;2023-02-21T03:23:08;-1.40;1.00
15217;DHT22;7711;46.634;14.318;2023-02-21T03:25:38;-1.30;1.00
15217;DHT22;7711;46.634;14.318;2023-02-21T03:28:06;-1.40;1.00
15217;DHT22;7711;46.634;14.318;2023-02-21T03:30:33;-1.30;1.00
15217;DHT22;7711;46.634;14.318;2023-02-21T03:33:00;-1.40;1.00
15217;DHT22;7711;46.634;14.318;2023-02-21T03:35:28;-1.50;1.00
15217;DHT22;7711;46.634;14.318;2023-02-21T03:37:57;-1.50;1.00
15217;DHT22;7711;46.634;14.318;2023-02-21T03:40:28;-1.50;1.00
15217;DHT22;7711;46.634;14.318;2023-02-21T03:42:56;-1.50;1.00
15217;DHT22;7711;46.634;14.318;2023-02-21T03:45:24;-1.40;1.00
15217;DHT22;7711;46.634;14.318;2023-02-21T03:47:51;-1.40;1.00
15217;DHT22;7711;46.634;14.318;2023-02-21T03:50:18;-1.50;1.00
15217;DHT22;7711;46.634;14.318;2023-02-21T03:52:45;-1.60;1.00
15217;DHT22;7711;46.634;14.318;2023-02-21T03:55:12;-1.60;1.00
15217;DHT22;7711;46.634;14.318;2023-02-21T03:57:40;-1.60;1.00
15217;DHT22;7711;46.634;14.318;2023-02-21T04:00:09;-1.70;1.00
15217;DHT22;7711;46.634;14.318;2023-02-21T04:02:36;-1.60;1.00
15217;DHT22;7711;46.634;14.318;2023-02-21T04:05:03;-1.60;1.00
15217;DHT22;7711;46.634;14.318;2023-02-21T04:07:30;-1.60;1.00
15217;DHT22;7711;46.634;14.318;2023-02-21T04:09:57;-1.70;1.00
15217;DHT22;7711;46.634;14.318;2023-02-21T04:12:24;-1.70;1.00
15217;DHT22;7711;46.634;14.318;2023-02-21T04:14:53;-1.60;1.00
15217;DHT22;7711;46.634;14.318;2023-02-21T04:17:21;-1.70;1.00
15217;DHT22;7711;46.634;14.318;2023-02-21T04:19:48;-1.70;1.00
15217;DHT22;7711;46.634;14.318;2023-02-21T04:22:15;-1.70;1.00
15217;DHT22;7711;46.634;14.318;2023-02-21T04:24:42;-1.70;1.00
15217;DHT22;7711;46.634;14.318;2023-02-21T04:27:09;-1.80;1.00
15217;DHT22;7711;46.634;14.318;2023-02-21T04:29:36;-1.90;1.00
15217;DHT22;7711;46.634;14.318;2023-02-21T04:32:05;-1.90;1.00
15217;DHT22;7711;46.634;14.318;2023-02-21T04:34:32;-1.80;1.00
15217;DHT22;7711;46.634;14.318;2023-02-21T04:36:59;-1.90;1.00
15217;DHT22;7711;46.634;14.318;2023-02-21T04:39:26;-1.90;1.00
15217;DHT22;7711;46.634;14.318;2023-02-21T04:41:53;-1.90;1.00
15217;DHT22;7711;46.634;14.318;2023-02-21T04:44:19;-2.10;1.00
15217;DHT22;7711;46.634;14.318;2023-02-21T04:46:47;-2.10;1.00
15217;DHT22;7711;46.634;14.318;2023-02-21T04:49:15;-2.20;1.00
15217;DHT22;7711;46.634;14.318;2023-02-21T04:51:43;-2.20;1.00
15217;DHT22;7711;46.634;14.318;2023-02-21T04:54:10;-2.10;1.00
15217;DHT22;7711;46.634;14.318;2023-02-21T04:56:37;-2.10;1.00
15217;DHT22;7711;46.634;14.318;2023-02-21T04:59:04;-2.20;1.00
15217;DHT22;7711;46.634;14.318;2023-02-21T05:01:31;-2.20;1.00
15217;DHT22;7711;46.634;14.318;2023-02-21T05:03:58;-2.10;1.00
15217;DHT22;7711;46.634;14.318;2023-02-21T05:06:28;-2.00;1.00
15217;DHT22;7711;46.634;14.318;2023-02-21T05:08:56;-2.10;1.00
15217;DHT22;7711;46.634;14.318;2023-02-21T05:11:23;-2.10;1.00
15217;DHT22;7711;46.634;14.318;2023-02-21T05:13:51;-2.20;1.00
15217;DHT22;7711;46.634;14.318;2023-02-21T05:16:18;-2.20;1.00
15217;DHT22;7711;46.634;14.318;2023-02-21T05:18:47;-2.20;1.00
15217;DHT22;7711;46.634;14.318;2023-02-21T05:21:15;-2.30;1.00
15217;DHT22;7711;46.634;14.318;2023-02-21T05:23:44;-2.20;1.00
15217;DHT22;7711;46.634;14.318;2023-02-21T05:26:21;-2.30;1.00
15217;DHT22;7711;46.634;14.318;2023-02-21T05:28:48;-2.30;1.00
15217;DHT22;7711;46.634;14.318;2023-02-21T05:31:15;-2.40;1.00
15217;DHT22;7711;46.634;14.318;2023-02-21T05:33:42;-2.30;1.00
15217;DHT22;7711;46.634;14.318;2023-02-21T05:36:09;-2.30;1.00
15217;DHT22;7711;46.634;14.318;2023-02-21T05:38:45;-2.40;1.00
15217;DHT22;7711;46.634;14.318;2023-02-21T05:41:13;-2.40;1.00
15217;DHT22;7711;46.634;14.318;2023-02-21T05:43:42;-2.30;1.00
15217;DHT22;7711;46.634;14.318;2023-02-21T05:46:17;-2.50;1.00
15217;DHT22;7711;46.634;14.318;2023-02-21T05:48:44;-2.50;1.00
15217;DHT22;7711;46.634;14.318;2023-02-21T05:51:12;-2.70;1.00
15217;DHT22;7711;46.634;14.318;2023-02-21T05:53:39;-2.50;1.00
15217;DHT22;7711;46.634;14.318;2023-02-21T05:56:07;-2.40;1.00
15217;DHT22;7711;46.634;14.318;2023-02-21T05:58:34;-2.40;1.00
15217;DHT22;7711;46.634;14.318;2023-02-21T06:01:02;-2.40;1.00
15217;DHT22;7711;46.634;14.318;2023-02-21T06:03:29;-2.40;1.00
15217;DHT22;7711;46.634;14.318;2023-02-21T06:05:56;-2.40;1.00
15217;DHT22;7711;46.634;14.318;2023-02-21T06:08:23;-2.40;1.00
15217;DHT22;7711;46.634;14.318;2023-02-21T06:10:50;-2.40;1.00
15217;DHT22;7711;46.634;14.318;2023-02-21T06:13:18;-2.30;1.00
15217;DHT22;7711;46.634;14.318;2023-02-21T06:15:46;-2.40;1.00
15217;DHT22;7711;46.634;14.318;2023-02-21T06:18:13;-2.40;1.00
15217;DHT22;7711;46.634;14.318;2023-02-21T06:20:40;-2.30;1.00
15217;DHT22;7711;46.634;14.318;2023-02-21T06:23:07;-2.30;1.00
15217;DHT22;7711;46.634;14.318;2023-02-21T06:25:34;-2.30;1.00
15217;DHT22;7711;46.634;14.318;2023-02-21T06:28:02;-2.20;1.00
15217;DHT22;7711;46.634;14.318;2023-02-21T06:30:30;-2.30;1.00
15217;DHT22;7711;46.634;14.318;2023-02-21T06:32:57;-2.20;1.00
15217;DHT22;7711;46.634;14.318;2023-02-21T06:35:24;-2.20;1.00
15217;DHT22;7711;46.634;14.318;2023-02-21T06:37:52;-2.10;1.00
15217;DHT22;7711;46.634;14.318;2023-02-21T06:40:19;-2.00;1.00
15217;DHT22;7711;46.634;14.318;2023-02-21T06:42:46;-2.10;1.00
15217;DHT22;7711;46.634;14.318;2023-02-21T06:45:13;-2.00;1.00
15217;DHT22;7711;46.634;14.318;2023-02-21T06:47:41;-2.00;1.00
15217;DHT22;7711;46.634;14.318;2023-02-21T06:50:08;-1.80;1.00
15217;DHT22;7711;46.634;14.318;2023-02-21T06:52:35;-1.80;1.00
15217;DHT22;7711;46.634;14.318;2023-02-21T06:55:02;-1.60;1.00
15217;DHT22;7711;46.634;14.318;2023-02-21T06:57:30;-1.50;1.00
15217;DHT22;7711;46.634;14.318;2023-02-21T07:00:15;-1.50;1.00
15217;DHT22;7711;46.634;14.318;2023-02-21T07:02:44;-1.30;1.00
15217;DHT22;7711;46.634;14.318;2023-02-21T07:05:11;-1.20;1.00
15217;DHT22;7711;46.634;14.318;2023-02-21T07:07:38;-1.10;1.00
15217;DHT22;7711;46.634;14.318;2023-02-21T07:10:05;-1.00;1.00
15217;DHT22;7711;46.634;14.318;2023-02-21T07:12:32;-1.00;1.00
15217;DHT22;7711;46.634;14.318;2023-02-21T07:14:59;-1.00;1.00
15217;DHT22;7711;46.634;14.318;2023-02-21T07:17:26;-0.90;1.00
15217;DHT22;7711;46.634;14.318;2023-02-21T07:19:55;-0.80;1.00
15217;DHT22;7711;46.634;14.318;2023-02-21T07:22:22;-0.70;1.00
15217;DHT22;7711;46.634;14.318;2023-02-21T07:24:51;-0.70;1.00
15217;DHT22;7711;46.634;14.318;2023-02-21T07:27:18;-0.50;1.00
15217;DHT22;7711;46.634;14.318;2023-02-21T07:29:46;-0.50;1.00
15217;DHT22;7711;46.634;14.318;2023-02-21T07:32:13;-0.40;1.00
15217;DHT22;7711;46.634;14.318;2023-02-21T07:34:40;-0.30;1.00
15217;DHT22;7711;46.634;14.318;2023-02-21T07:37:10;-0.20;1.00
15217;DHT22;7711;46.634;14.318;2023-02-21T07:39:37;0.00;1.00
15217;DHT22;7711;46.634;14.318;2023-02-21T07:42:04;0.10;1.00
15217;DHT22;7711;46.634;14.318;2023-02-21T07:44:32;0.20;1.00
15217;DHT22;7711;46.634;14.318;2023-02-21T07:47:00;0.20;1.00
15217;DHT22;7711;46.634;14.318;2023-02-21T07:49:27;0.30;1.00
15217;DHT22;7711;46.634;14.318;2023-02-21T07:51:54;0.40;1.00
15217;DHT22;7711;46.634;14.318;2023-02-21T07:54:22;0.50;99.90
15217;DHT22;7711;46.634;14.318;2023-02-21T07:56:49;0.60;99.90
15217;DHT22;7711;46.634;14.318;2023-02-21T07:59:16;0.70;99.90
15217;DHT22;7711;46.634;14.318;2023-02-21T08:01:43;0.80;99.90
15217;DHT22;7711;46.634;14.318;2023-02-21T08:04:12;0.90;99.90
15217;DHT22;7711;46.634;14.318;2023-02-21T08:06:39;1.10;99.90
15217;DHT22;7711;46.634;14.318;2023-02-21T08:09:06;1.30;99.90
15217;DHT22;7711;46.634;14.318;2023-02-21T08:11:35;1.40;99.90
15217;DHT22;7711;46.634;14.318;2023-02-21T08:14:02;1.50;99.90
15217;DHT22;7711;46.634;14.318;2023-02-21T08:16:29;1.60;99.90
15217;DHT22;7711;46.634;14.318;2023-02-21T08:18:56;1.70;99.90
15217;DHT22;7711;46.634;14.318;2023-02-21T08:21:23;1.80;99.90
15217;DHT22;7711;46.634;14.318;2023-02-21T08:23:51;1.80;99.90
15217;DHT22;7711;46.634;14.318;2023-02-21T08:26:19;1.90;99.90
15217;DHT22;7711;46.634;14.318;2023-02-21T08:28:48;2.10;99.90
15217;DHT22;7711;46.634;14.318;2023-02-21T08:31:15;2.20;99.90
15217;DHT22;7711;46.634;14.318;2023-02-21T08:33:43;2.30;99.90
15217;DHT22;7711;46.634;14.318;2023-02-21T08:36:10;2.40;99.90
15217;DHT22;7711;46.634;14.318;2023-02-21T08:38:37;2.50;99.90
15217;DHT22;7711;46.634;14.318;2023-02-21T08:41:04;2.70;99.90
15217;DHT22;7711;46.634;14.318;2023-02-21T08:43:32;2.80;99.90
15217;DHT22;7711;46.634;14.318;2023-02-21T08:46:00;2.90;99.90
15217;DHT22;7711;46.634;14.318;2023-02-21T08:48:27;3.10;99.90
15217;DHT22;7711;46.634;14.318;2023-02-21T08:50:54;3.20;99.90
15217;DHT22;7711;46.634;14.318;2023-02-21T08:53:21;3.20;99.90
15217;DHT22;7711;46.634;14.318;2023-02-21T08:55:48;3.30;99.90
15217;DHT22;7711;46.634;14.318;2023-02-21T08:58:15;3.40;99.90
15217;DHT22;7711;46.634;14.318;2023-02-21T09:00:42;3.40;99.90
15217;DHT22;7711;46.634;14.318;2023-02-21T09:03:10;3.40;99.90
15217;DHT22;7711;46.634;14.318;2023-02-21T09:05:38;3.30;99.90
15217;DHT22;7711;46.634;14.318;2023-02-21T09:08:05;3.50;99.90
15217;DHT22;7711;46.634;14.318;2023-02-21T09:10:35;3.80;99.90
15217;DHT22;7711;46.634;14.318;2023-02-21T09:13:03;3.90;99.90
15217;DHT22;7711;46.634;14.318;2023-02-21T09:15:30;4.00;99.90
15217;DHT22;7711;46.634;14.318;2023-02-21T09:17:57;4.20;99.90
15217;DHT22;7711;46.634;14.318;2023-02-21T09:20:26;4.40;99.90
15217;DHT22;7711;46.634;14.318;2023-02-21T09:22:54;4.60;99.90
15217;DHT22;7711;46.634;14.318;2023-02-21T09:25:22;4.70;99.90
15217;DHT22;7711;46.634;14.318;2023-02-21T09:27:50;4.80;99.90
15217;DHT22;7711;46.634;14.318;2023-02-21T09:30:18;4.90;99.90
15217;DHT22;7711;46.634;14.318;2023-02-21T09:32:46;5.00;99.90
15217;DHT22;7711;46.634;14.318;2023-02-21T09:35:14;5.20;99.90
15217;DHT22;7711;46.634;14.318;2023-02-21T09:37:44;5.20;99.90
15217;DHT22;7711;46.634;14.318;2023-02-21T09:40:20;5.40;99.90
15217;DHT22;7711;46.634;14.318;2023-02-21T09:42:50;5.60;99.90
15217;DHT22;7711;46.634;14.318;2023-02-21T09:45:19;5.60;99.90
15217;DHT22;7711;46.634;14.318;2023-02-21T09:47:49;5.60;99.90
15217;DHT22;7711;46.634;14.318;2023-02-21T09:50:19;5.80;99.90
15217;DHT22;7711;46.634;14.318;2023-02-21T09:52:55;5.80;99.90
15217;DHT22;7711;46.634;14.318;2023-02-21T09:55:27;6.00;99.90
15217;DHT22;7711;46.634;14.318;2023-02-21T09:57:55;6.00;99.90
15217;DHT22;7711;46.634;14.318;2023-02-21T10:00:26;6.10;99.90
15217;DHT22;7711;46.634;14.318;2023-02-21T10:03:02;6.20;99.90
15217;DHT22;7711;46.634;14.318;2023-02-21T10:05:41;6.30;99.90
15217;DHT22;7711;46.634;14.318;2023-02-21T10:08:18;6.40;99.90
15217;DHT22;7711;46.634;14.318;2023-02-21T10:10:50;6.50;99.90
15217;DHT22;7711;46.634;14.318;2023-02-21T10:13:35;6.60;99.90
15217;DHT22;7711;46.634;14.318;2023-02-21T10:16:07;6.70;99.90
15217;DHT22;7711;46.634;14.318;2023-02-21T10:18:40;7.00;99.90
15217;DHT22;7711;46.634;14.318;2023-02-21T10:21:13;7.20;99.90
15217;DHT22;7711;46.634;14.318;2023-02-21T10:23:45;7.40;99.90
15217;DHT22;7711;46.634;14.318;2023-02-21T10:26:17;7.50;99.90
15217;DHT22;7711;46.634;14.318;2023-02-21T10:28:45;7.50;99.90
15217;DHT22;7711;46.634;14.318;2023-02-21T10:31:17;7.40;99.90
15217;DHT22;7711;46.634;14.318;2023-02-21T10:33:45;7.40;99.90
15217;DHT22;7711;46.634;14.318;2023-02-21T10:38:49;7.10;99.90
15217;DHT22;7711;46.634;14.318;2023-02-21T10:41:20;7.30;99.90
15217;DHT22;7711;46.634;14.318;2023-02-21T10:43:51;7.40;99.90
15217;DHT22;7711;46.634;14.318;2023-02-21T10:46:23;7.50;99.90
15217;DHT22;7711;46.634;14.318;2023-02-21T10:48:52;7.60;99.90
15217;DHT22;7711;46.634;14.318;2023-02-21T10:51:29;7.70;99.90
15217;DHT22;7711;46.634;14.318;2023-02-21T10:54:18;7.90;99.90
15217;DHT22;7711;46.634;14.318;2023-02-21T10:56:46;7.90;99.90
15217;DHT22;7711;46.634;14.318;2023-02-21T10:59:21;8.10;99.90
15217;DHT22;7711;46.634;14.318;2023-02-21T11:01:49;8.10;99.90
15217;DHT22;7711;46.634;14.318;2023-02-21T11:04:25;8.20;99.90
15217;DHT22;7711;46.634;14.318;2023-02-21T11:06:55;8.30;99.90
15217;DHT22;7711;46.634;14.318;2023-02-21T11:09:32;8.30;99.90
15217;DHT22;7711;46.634;14.318;2023-02-21T11:12:02;8.20;99.90
15217;DHT22;7711;46.634;14.318;2023-02-21T11:14:29;8.20;99.90
15217;DHT22;7711;46.634;14.318;2023-02-21T11:17:16;8.40;99.90
15217;DHT22;7711;46.634;14.318;2023-02-21T11:19:48;8.50;99.90
15217;DHT22;7711;46.634;14.318;2023-02-21T11:22:19;8.80;99.90
15217;DHT22;7711;46.634;14.318;2023-02-21T11:24:51;8.80;99.90
15217;DHT22;7711;46.634;14.318;2023-02-21T11:27:19;9.10;99.90
15217;DHT22;7711;46.634;14.318;2023-02-21T11:29:48;9.30;99.90
15217;DHT22;7711;46.634;14.318;2023-02-21T11:32:24;9.60;99.90
15217;DHT22;7711;46.634;14.318;2023-02-21T11:35:00;9.80;99.90
15217;DHT22;7711;46.634;14.318;2023-02-21T11:37:27;9.80;99.90
15217;DHT22;7711;46.634;14.318;2023-02-21T11:39:58;9.80;99.90
15217;DHT22;7711;46.634;14.318;2023-02-21T11:42:28;9.90;99.90
15217;DHT22;7711;46.634;14.318;2023-02-21T11:45:18;10.10;99.90
15217;DHT22;7711;46.634;14.318;2023-02-21T11:47:54;10.20;99.90
15217;DHT22;7711;46.634;14.318;2023-02-21T11:50:24;10.40;99.90
15217;DHT22;7711;46.634;14.318;2023-02-21T11:52:57;10.60;99.90
15217;DHT22;7711;46.634;14.318;2023-02-21T11:55:27;10.70;99.90
15217;DHT22;7711;46.634;14.318;2023-02-21T11:58:00;11.00;99.90
15217;DHT22;7711;46.634;14.318;2023-02-21T12:00:39;11.10;99.90
15217;DHT22;7711;46.634;14.318;2023-02-21T12:03:42;11.20;99.90
15217;DHT22;7711;46.634;14.318;2023-02-21T12:06:20;11.10;99.90
15217;DHT22;7711;46.634;14.318;2023-02-21T12:08:52;11.10;99.90
15217;DHT22;7711;46.634;14.318;2023-02-21T12:11:39;11.30;99.90
15217;DHT22;7711;46.634;14.318;2023-02-21T12:14:18;11.50;99.90
15217;DHT22;7711;46.634;14.318;2023-02-21T12:16:58;11.70;99.90
15217;DHT22;7711;46.634;14.318;2023-02-21T12:22:45;12.00;99.90
15217;DHT22;7711;46.634;14.318;2023-02-21T12:25:21;12.00;99.90
15217;DHT22;7711;46.634;14.318;2023-02-21T12:27:54;12.20;99.90
15217;DHT22;7711;46.634;14.318;2023-02-21T12:33:30;12.70;99.90
15217;DHT22;7711;46.634;14.318;2023-02-21T12:36:14;12.50;99.90
15217;DHT22;7711;46.634;14.318;2023-02-21T12:39:00;12.50;99.90
15217;DHT22;7711;46.634;14.318;2023-02-21T12:41:51;12.80;99.90
15217;DHT22;7711;46.634;14.318;2023-02-21T12:44:25;13.00;99.90
15217;DHT22;7711;46.634;14.318;2023-02-21T12:46:58;12.70;99.90
15217;DHT22;7711;46.634;14.318;2023-02-21T12:49:30;13.00;99.90
15217;DHT22;7711;46.634;14.318;2023-02-21T12:52:05;12.80;99.90
15217;DHT22;7711;46.634;14.318;2023-02-21T12:54:39;13.10;99.90
15217;DHT22;7711;46.634;14.318;2023-02-21T12:57:11;13.20;99.90
15217;DHT22;7711;46.634;14.318;2023-02-21T12:59:50;13.20;99.90
15217;DHT22;7711;46.634;14.318;2023-02-21T13:02:25;13.30;99.90
15217;DHT22;7711;46.634;14.318;2023-02-21T13:04:55;13.20;99.90
15217;DHT22;7711;46.634;14.318;2023-02-21T13:07:25;13.40;99.90
15217;DHT22;7711;46.634;14.318;2023-02-21T13:10:02;13.40;99.90
15217;DHT22;7711;46.634;14.318;2023-02-21T13:12:35;13.60;99.90
15217;DHT22;7711;46.634;14.318;2023-02-21T13:15:15;13.60;99.90
15217;DHT22;7711;46.634;14.318;2023-02-21T13:17:43;13.70;99.90
15217;DHT22;7711;46.634;14.318;2023-02-21T13:20:17;13.40;99.90
15217;DHT22;7711;46.634;14.318;2023-02-21T13:22:46;14.20;99.90
15217;DHT22;7711;46.634;14.318;2023-02-21T13:25:39;15.00;99.90
15217;DHT22;7711;46.634;14.318;2023-02-21T13:28:14;16.10;99.90
15217;DHT22;7711;46.634;14.318;2023-02-21T13:30:49;16.80;99.90
15217;DHT22;7711;46.634;14.318;2023-02-21T13:33:25;17.90;99.90
15217;DHT22;7711;46.634;14.318;2023-02-21T13:35:56;18.80;99.90
15217;DHT22;7711;46.634;14.318;2023-02-21T13:38:25;19.00;99.90
15217;DHT22;7711;46.634;14.318;2023-02-21T13:41:02;19.10;99.90
15217;DHT22;7711;46.634;14.318;2023-02-21T13:43:33;19.60;99.90
15217;DHT22;7711;46.634;14.318;2023-02-21T13:49:42;19.10;99.90
15217;DHT22;7711;46.634;14.318;2023-02-21T13:55:28;19.40;99.90
15217;DHT22;7711;46.634;14.318;2023-02-21T14:07:16;19.20;99.90
15217;DHT22;7711;46.634;14.318;2023-02-21T14:09:45;19.20;99.90
15217;DHT22;7711;46.634;14.318;2023-02-21T14:12:14;19.10;99.90
15217;DHT22;7711;46.634;14.318;2023-02-21T14:14:42;19.10;99.90
15217;DHT22;7711;46.634;14.318;2023-02-21T14:17:13;18.30;99.90
15217;DHT22;7711;46.634;14.318;2023-02-21T14:19:42;19.00;99.90
15217;DHT22;7711;46.634;14.318;2023-02-21T14:22:14;19.30;99.90
15217;DHT22;7711;46.634;14.318;2023-02-21T14:24:45;19.40;99.90
15217;DHT22;7711;46.634;14.318;2023-02-21T14:27:32;20.00;99.90
15217;DHT22;7711;46.634;14.318;2023-02-21T14:30:23;20.30;99.90
15217;DHT22;7711;46.634;14.318;2023-02-21T14:32:51;19.80;99.90
15217;DHT22;7711;46.634;14.318;2023-02-21T14:35:27;19.20;99.90
15217;DHT22;7711;46.634;14.318;2023-02-21T14:37:59;18.40;99.90
15217;DHT22;7711;46.634;14.318;2023-02-21T14:43:31;17.70;99.90
15217;DHT22;7711;46.634;14.318;2023-02-21T14:46:15;17.50;99.90
15217;DHT22;7711;46.634;14.318;2023-02-21T14:49:00;17.40;99.90
15217;DHT22;7711;46.634;14.318;2023-02-21T14:52:01;17.20;99.90
15217;DHT22;7711;46.634;14.318;2023-02-21T14:58:13;16.60;99.90
15217;DHT22;7711;46.634;14.318;2023-02-21T15:00:54;16.20;99.90
15217;DHT22;7711;46.634;14.318;2023-02-21T15:03:29;16.20;99.90
15217;DHT22;7711;46.634;14.318;2023-02-21T15:06:03;16.10;99.90
15217;DHT22;7711;46.634;14.318;2023-02-21T15:08:40;16.00;99.90
15217;DHT22;7711;46.634;14.318;2023-02-21T15:11:17;16.40;99.90
15217;DHT22;7711;46.634;14.318;2023-02-21T15:13:46;16.20;99.90
15217;DHT22;7711;46.634;14.318;2023-02-21T15:16:14;16.50;99.90
15217;DHT22;7711;46.634;14.318;2023-02-21T15:18:57;16.90;99.90
15217;DHT22;7711;46.634;14.318;2023-02-21T15:21:25;16.80;99.90
15217;DHT22;7711;46.634;14.318;2023-02-21T15:24:01;16.90;99.90
15217;DHT22;7711;46.634;14.318;2023-02-21T15:26:29;16.90;99.90
15217;DHT22;7711;46.634;14.318;2023-02-21T15:29:06;16.90;99.90
15217;DHT22;7711;46.634;14.318;2023-02-21T15:31:35;16.80;99.90
15217;DHT22;7711;46.634;14.318;2023-02-21T15:34:02;17.00;99.90
15217;DHT22;7711;46.634;14.318;2023-02-21T15:36:29;16.40;99.90
15217;DHT22;7711;46.634;14.318;2023-02-21T15:39:02;16.60;99.90
15217;DHT22;7711;46.634;14.318;2023-02-21T15:41:35;16.40;99.90
15217;DHT22;7711;46.634;14.318;2023-02-21T15:44:10;16.80;99.90
15217;DHT22;7711;46.634;14.318;2023-02-21T15:46:42;16.60;99.90
15217;DHT22;7711;46.634;14.318;2023-02-21T15:49:15;15.70;99.90
15217;DHT22;7711;46.634;14.318;2023-02-21T15:51:45;14.80;99.90
15217;DHT22;7711;46.634;14.318;2023-02-21T15:54:25;14.10;99.90
15217;DHT22;7711;46.634;14.318;2023-02-21T15:57:19;13.50;99.90
15217;DHT22;7711;46.634;14.318;2023-02-21T16:00:15;13.00;99.90
15217;DHT22;7711;46.634;14.318;2023-02-21T16:02:43;12.60;99.90
15217;DHT22;7711;46.634;14.318;2023-02-21T16:05:22;12.00;99.90
15217;DHT22;7711;46.634;14.318;2023-02-21T16:07:51;11.70;99.90
15217;DHT22;7711;46.634;14.318;2023-02-21T16:10:21;11.30;99.90
15217;DHT22;7711;46.634;14.318;2023-02-21T16:12:55;11.10;99.90
15217;DHT22;7711;46.634;14.318;2023-02-21T16:15:27;10.80;99.90
15217;DHT22;7711;46.634;14.318;2023-02-21T16:17:57;10.50;99.90
15217;DHT22;7711;46.634;14.318;2023-02-21T16:20:30;10.30;99.90
15217;DHT22;7711;46.634;14.318;2023-02-21T16:23:20;10.10;99.90
15217;DHT22;7711;46.634;14.318;2023-02-21T16:25:57;9.80;99.90
15217;DHT22;7711;46.634;14.318;2023-02-21T16:28:24;9.60;99.90
15217;DHT22;7711;46.634;14.318;2023-02-21T16:30:54;9.40;99.90
15217;DHT22;7711;46.634;14.318;2023-02-21T16:33:23;9.20;99.90
15217;DHT22;7711;46.634;14.318;2023-02-21T16:35:51;8.90;99.90
15217;DHT22;7711;46.634;14.318;2023-02-21T16:38:20;8.60;99.90
15217;DHT22;7711;46.634;14.318;2023-02-21T16:40:48;8.50;99.90
15217;DHT22;7711;46.634;14.318;2023-02-21T16:43:17;8.30;99.90
15217;DHT22;7711;46.634;14.318;2023-02-21T16:45:46;8.00;99.90
15217;DHT22;7711;46.634;14.318;2023-02-21T16:48:17;7.90;99.90
15217;DHT22;7711;46.634;14.318;2023-02-21T16:50:47;7.70;99.90
15217;DHT22;7711;46.634;14.318;2023-02-21T16:53:15;7.50;99.90
15217;DHT22;7711;46.634;14.318;2023-02-21T16:55:43;7.30;99.90
15217;DHT22;7711;46.634;14.318;2023-02-21T16:58:18;7.10;99.90
15217;DHT22;7711;46.634;14.318;2023-02-21T17:00:49;6.90;99.90
15217;DHT22;7711;46.634;14.318;2023-02-21T17:03:19;6.80;99.90
15217;DHT22;7711;46.634;14.318;2023-02-21T17:05:46;6.70;99.90
15217;DHT22;7711;46.634;14.318;2023-02-21T17:08:14;6.60;99.90
15217;DHT22;7711;46.634;14.318;2023-02-21T17:10:41;6.40;99.90
15217;DHT22;7711;46.634;14.318;2023-02-21T17:13:08;6.30;99.90